Airfield :
LOGIN :

Register | Disclaimer

   EN    FR    IT 

 










Legend :    VFR   Marginal VFR   IFR   Intensive IFR   Very Intensive IFR
Visi :
Ceiling :
>= 8 km
>= 3000ft
5 to 8 km
1000 to 3000 ft
1500m to 5 km
500 to 1000 ft
800 to 1500m
200 to 500 ft
< 800m
< 200 ft
Symbols :   Thunderstorms  Fog  Heavy snow  Heavy precipitations  Wind > 20 kt
SIGMETs :     Misc.  Thunderstorms  Icing  Turbulence  Mountain Waves  Volcanic Ashes






- Airport Elevation : 598 ft
- IATA code : BQH


EGKB - Biggin Hill

CURRENT METAR :
  • 230750Z 21010KT 9999 3000S SCT005 11/11 Q1008

EXPIRED METARs :
  • 230720Z 21009KT 9999 3000S VCSH SCT006 12/11 Q1008
  • 230650Z 22010KT 180V240 9999 VCSH SCT007 11/11 Q1008
  • 230620Z 21011KT 9999 VCSH SCT010 11/11 Q1008
  • 230550Z 20012KT 9999 3000S -RA BKN004 12/12 Q1008
  • 230520Z 19011KT 9999 3000S BKN003 12/11 Q1008

TAF TAF EGKB
Valid from the 23 at 06:00 until the 23 at 15:00 UTC


230602Z 2306/2315 21012KT 3000 BR BKN003
BECMG 2306/2309 9999 NSW FEW010
PROB30
TEMPO 2306/2311 6000 SHRA BKN012
TEMPO 2311/2315 6000 RADZ BKN010



MET'MAP, your aeronautical weather chart ! - Copyright ORBIFLY December 2007 - Disclaimer

ORBIFLY MET'MAP TEAM :

Programming & Development : Alexandra Zaïnal
Concept & original design : Baudouin d'Aumeries
Assistance for programming : Marc-Olivier Méhu
Technical & hardware support : Manuel Goepfert

Contact : metmap@orbifly.com




SOURCES & CREDITS :

   NOAA